createdAt,value
2017-07-21T00:01:54.336Z,91.60
2017-07-21T00:04:20.368Z,91.70
2017-07-21T00:06:47.130Z,91.80
2017-07-21T00:09:13.161Z,91.70
2017-07-21T00:11:39.184Z,91.80
2017-07-21T00:14:05.232Z,92.00
2017-07-21T00:16:31.276Z,92.10
2017-07-21T00:18:57.292Z,92.20
2017-07-21T00:21:23.328Z,92.10
2017-07-21T00:23:49.336Z,92.10
2017-07-21T00:29:12.858Z,92.20
2017-07-21T00:31:38.882Z,92.10
2017-07-21T00:34:04.929Z,92.20
2017-07-21T00:36:30.965Z,92.10
2017-07-21T00:38:56.990Z,92.10
2017-07-21T00:41:23.033Z,92.00
2017-07-21T00:43:49.063Z,91.80
2017-07-21T00:46:15.177Z,91.80
2017-07-21T00:48:41.297Z,92.10
2017-07-21T00:51:07.344Z,91.70
2017-07-21T00:53:33.414Z,91.40
2017-07-21T00:55:59.447Z,91.20
2017-07-21T00:58:25.498Z,91.30
2017-07-21T01:00:52.272Z,91.40
2017-07-21T01:03:18.310Z,91.40
2017-07-21T01:05:44.338Z,91.30
2017-07-21T01:08:11.127Z,91.40
2017-07-21T01:10:37.154Z,91.20
2017-07-21T01:13:03.185Z,90.90
2017-07-21T01:15:29.974Z,91.10
2017-07-21T01:17:56.010Z,91.10
2017-07-21T01:20:22.054Z,91.00
2017-07-21T01:22:48.161Z,91.10
2017-07-21T01:25:14.221Z,90.90
2017-07-21T01:27:40.254Z,90.90
2017-07-21T01:30:06.279Z,90.70
2017-07-21T01:32:32.314Z,90.90
2017-07-21T01:34:58.377Z,91.00
2017-07-21T01:37:25.157Z,90.90
2017-07-21T01:39:51.194Z,90.70
2017-07-21T01:42:17.249Z,90.80
2017-07-21T01:44:43.290Z,90.70
2017-07-21T01:47:09.326Z,90.50
2017-07-21T01:49:35.362Z,90.60
2017-07-21T01:52:02.142Z,90.50
2017-07-21T01:54:28.174Z,90.50
2017-07-21T01:56:54.210Z,90.50
2017-07-21T01:59:20.263Z,90.50
2017-07-21T02:01:46.305Z,90.30
2017-07-21T02:04:12.339Z,90.40
2017-07-21T02:06:38.397Z,90.60
2017-07-21T02:09:04.438Z,90.40
2017-07-21T02:11:31.214Z,90.20
2017-07-21T02:13:57.261Z,90.20
2017-07-21T02:16:23.337Z,90.50
2017-07-21T02:18:49.377Z,90.70
2017-07-21T02:21:15.413Z,90.20
2017-07-21T02:23:48.241Z,90.20
2017-07-21T02:26:14.273Z,90.10
2017-07-21T02:28:40.311Z,89.60
2017-07-21T02:31:06.335Z,90.00
2017-07-21T02:33:32.405Z,89.70
2017-07-21T02:35:59.187Z,89.80
2017-07-21T02:38:25.232Z,89.70
2017-07-21T02:40:51.258Z,89.90
2017-07-21T02:43:17.378Z,89.90
2017-07-21T02:45:43.393Z,89.90
2017-07-21T02:48:09.442Z,89.70
2017-07-21T02:50:35.485Z,89.70
2017-07-21T02:53:01.510Z,89.90
2017-07-21T02:55:28.294Z,89.00
2017-07-21T02:57:54.334Z,89.00
2017-07-21T03:00:21.109Z,88.60
2017-07-21T03:02:47.150Z,88.60
2017-07-21T03:05:13.181Z,89.00
2017-07-21T03:07:39.985Z,88.10
2017-07-21T03:10:06.022Z,88.10
2017-07-21T03:12:32.058Z,88.10
2017-07-21T03:14:58.091Z,88.10
2017-07-21T03:17:24.121Z,87.20
2017-07-21T03:19:50.185Z,87.90
2017-07-21T03:22:16.210Z,87.90
2017-07-21T03:24:42.286Z,87.80
2017-07-21T03:27:08.329Z,86.70
2017-07-21T03:29:34.406Z,87.10
2017-07-21T03:32:00.445Z,87.50
2017-07-21T03:34:26.490Z,87.50
2017-07-21T03:36:52.525Z,87.50
2017-07-21T03:39:18.560Z,87.40
2017-07-21T03:41:44.619Z,87.80
2017-07-21T03:44:11.442Z,87.20
2017-07-21T03:46:37.479Z,87.10
2017-07-21T03:49:03.502Z,87.80
2017-07-21T03:51:29.617Z,87.50
2017-07-21T03:53:55.658Z,87.70
2017-07-21T03:56:21.700Z,88.00
2017-07-21T03:58:48.490Z,88.80
2017-07-21T04:01:15.325Z,88.90
2017-07-21T04:03:41.366Z,88.90
2017-07-21T04:06:07.392Z,89.00
2017-07-21T04:08:40.531Z,88.60
2017-07-21T04:11:06.578Z,88.80
2017-07-21T04:13:32.625Z,89.10
2017-07-21T04:15:58.675Z,89.10
2017-07-21T04:18:25.454Z,89.60
2017-07-21T04:20:51.483Z,89.60
2017-07-21T04:23:17.548Z,88.90
2017-07-21T04:25:43.605Z,89.30
2017-07-21T04:28:09.646Z,89.20
2017-07-21T04:30:35.677Z,89.40
2017-07-21T04:33:01.718Z,89.70
2017-07-21T04:35:27.750Z,89.90
2017-07-21T04:37:53.781Z,90.00
2017-07-21T04:40:19.833Z,89.90
2017-07-21T04:42:45.867Z,89.50
2017-07-21T04:45:11.902Z,89.10
2017-07-21T04:47:37.937Z,88.40
2017-07-21T04:50:04.044Z,88.90
2017-07-21T04:52:30.082Z,88.70
2017-07-21T04:54:56.134Z,88.50
2017-07-21T04:57:22.174Z,88.50
2017-07-21T04:59:48.209Z,87.60
2017-07-21T05:02:14.257Z,87.50
2017-07-21T05:04:41.039Z,87.80
2017-07-21T05:07:07.190Z,87.80
2017-07-21T05:09:33.390Z,88.40
2017-07-21T05:12:00.193Z,88.40
2017-07-21T05:14:26.265Z,88.60
2017-07-21T05:16:52.307Z,88.50
2017-07-21T05:19:18.330Z,88.10
2017-07-21T05:21:44.381Z,87.90
2017-07-21T05:24:10.413Z,87.70
2017-07-21T05:26:36.442Z,87.80
2017-07-21T05:29:02.467Z,88.40
2017-07-21T05:31:28.511Z,87.60
2017-07-21T05:33:55.290Z,87.80
2017-07-21T05:36:21.325Z,87.60
2017-07-21T05:38:47.419Z,87.70
2017-07-21T05:41:14.241Z,87.50
2017-07-21T05:43:40.290Z,87.40
2017-07-21T05:46:07.055Z,87.50
2017-07-21T05:48:33.097Z,87.40
2017-07-21T05:50:59.114Z,87.50
2017-07-21T05:53:25.162Z,87.50
2017-07-21T05:55:51.218Z,86.70
2017-07-21T05:58:17.238Z,86.10
2017-07-21T06:00:43.277Z,85.70
2017-07-21T06:03:09.317Z,85.10
2017-07-21T06:05:35.370Z,83.80
2017-07-21T06:08:02.159Z,83.10
2017-07-21T06:10:28.209Z,83.60
2017-07-21T06:12:54.234Z,84.40
2017-07-21T06:15:20.274Z,84.30
2017-07-21T06:17:46.310Z,83.80
2017-07-21T06:20:12.358Z,83.10
2017-07-21T06:22:39.126Z,81.50
2017-07-21T06:25:05.161Z,81.30
2017-07-21T06:27:31.225Z,81.70
2017-07-21T06:29:57.291Z,82.00
2017-07-21T06:32:24.093Z,81.80
2017-07-21T06:34:50.149Z,81.80
2017-07-21T06:37:16.183Z,82.10
2017-07-21T06:39:42.226Z,80.90
2017-07-21T06:42:08.266Z,81.00
2017-07-21T06:44:42.181Z,80.90
2017-07-21T06:47:08.222Z,80.90
2017-07-21T06:49:34.254Z,81.60
2017-07-21T06:52:00.285Z,82.00
2017-07-21T06:54:27.085Z,80.50
2017-07-21T06:56:53.123Z,80.40
2017-07-21T06:59:19.894Z,80.20
2017-07-21T07:01:45.946Z,80.20
2017-07-21T07:04:11.994Z,80.60
2017-07-21T07:06:38.053Z,79.90
2017-07-21T07:09:04.115Z,78.20
2017-07-21T07:11:30.165Z,76.90
2017-07-21T07:13:56.185Z,76.10
2017-07-21T07:16:22.990Z,75.50
2017-07-21T07:18:49.034Z,75.30
2017-07-21T07:21:15.089Z,76.10
2017-07-21T07:23:41.126Z,75.50
2017-07-21T07:26:07.182Z,74.80
2017-07-21T07:28:33.242Z,75.20
2017-07-21T07:30:59.265Z,74.00
2017-07-21T07:33:26.050Z,75.90
2017-07-21T07:35:52.077Z,76.00
2017-07-21T07:38:18.112Z,71.30
2017-07-21T07:40:44.135Z,70.10
2017-07-21T07:43:10.905Z,72.80
2017-07-21T07:45:36.950Z,72.80
2017-07-21T07:48:03.029Z,71.20
2017-07-21T07:50:29.077Z,70.70
2017-07-21T07:52:56.341Z,71.20
2017-07-21T07:55:22.438Z,71.10
2017-07-21T07:57:49.206Z,71.50
2017-07-21T08:00:15.241Z,72.10
2017-07-21T08:02:41.269Z,70.10
2017-07-21T08:05:08.046Z,68.90
2017-07-21T08:07:34.074Z,68.80
2017-07-21T08:10:00.114Z,68.10
2017-07-21T08:12:26.881Z,67.10
2017-07-21T08:14:52.933Z,67.00
2017-07-21T08:17:18.953Z,66.60
2017-07-21T08:19:45.005Z,64.80
2017-07-21T08:22:11.041Z,65.30
2017-07-21T08:24:37.065Z,66.30
2017-07-21T08:27:03.098Z,66.30
2017-07-21T08:29:29.877Z,63.30
2017-07-21T08:31:55.938Z,63.30
2017-07-21T08:34:21.961Z,65.50
2017-07-21T08:36:47.994Z,65.90
2017-07-21T08:39:14.013Z,66.30
2017-07-21T08:41:40.038Z,65.10
2017-07-21T08:44:06.078Z,67.20
2017-07-21T08:46:32.849Z,63.50
2017-07-21T08:48:58.918Z,63.50
2017-07-21T08:51:25.702Z,61.30
2017-07-21T08:53:51.730Z,61.20
2017-07-21T08:56:17.758Z,59.40
2017-07-21T08:58:43.797Z,55.80
2017-07-21T09:01:09.822Z,55.60
2017-07-21T09:03:35.873Z,56.20
2017-07-21T09:06:02.679Z,52.70
2017-07-21T09:08:28.749Z,52.60
2017-07-21T09:10:54.778Z,55.90
2017-07-21T09:13:20.818Z,54.40
2017-07-21T09:15:47.594Z,57.20
2017-07-21T09:18:13.657Z,56.60
2017-07-21T09:20:39.703Z,55.20
2017-07-21T09:23:05.773Z,57.80
2017-07-21T09:25:31.799Z,54.80
2017-07-21T09:27:58.588Z,56.10
2017-07-21T09:30:24.622Z,56.00
2017-07-21T09:32:51.421Z,54.50
2017-07-21T09:35:17.453Z,55.00
2017-07-21T09:37:43.486Z,55.90
2017-07-21T09:40:10.261Z,52.30
2017-07-21T09:42:36.295Z,52.30
2017-07-21T09:45:02.350Z,52.20
2017-07-21T09:47:28.377Z,54.40
2017-07-21T09:49:54.434Z,54.00
2017-07-21T09:52:21.207Z,50.30
2017-07-21T09:54:47.246Z,50.20
2017-07-21T09:57:13.286Z,51.40
2017-07-21T09:59:39.318Z,52.00
2017-07-21T10:02:05.354Z,50.90
2017-07-21T10:04:32.117Z,59.20
2017-07-21T10:06:58.142Z,59.10
2017-07-21T10:09:24.169Z,52.00
2017-07-21T10:11:50.229Z,50.70
2017-07-21T10:14:17.002Z,45.00
2017-07-21T10:16:43.045Z,45.50
2017-07-21T10:19:09.070Z,42.10
2017-07-21T10:21:35.122Z,40.70
2017-07-21T10:24:01.142Z,42.30
2017-07-21T10:26:27.170Z,46.30
2017-07-21T10:28:53.194Z,44.80
2017-07-21T10:31:19.217Z,46.80
2017-07-21T10:33:45.250Z,47.70
2017-07-21T10:36:11.306Z,49.50
2017-07-21T10:38:37.351Z,52.00
2017-07-21T10:41:04.143Z,46.80
2017-07-21T10:43:30.175Z,46.80
2017-07-21T10:45:56.197Z,44.00
2017-07-21T10:48:22.978Z,39.20
2017-07-21T10:50:49.002Z,38.40
2017-07-21T10:53:15.030Z,38.30
2017-07-21T10:55:41.081Z,40.70
2017-07-21T10:58:07.152Z,41.20
2017-07-21T11:00:33.965Z,39.20
2017-07-21T11:02:59.993Z,39.20
2017-07-21T11:05:26.793Z,40.50
2017-07-21T11:07:52.825Z,40.50
2017-07-21T11:10:19.606Z,45.40
2017-07-21T11:12:45.633Z,45.50
2017-07-21T11:15:11.698Z,45.70
2017-07-21T11:17:37.738Z,47.10
2017-07-21T11:20:03.789Z,46.10
2017-07-21T11:22:30.586Z,47.50
2017-07-21T11:24:56.642Z,47.50
2017-07-21T11:27:22.682Z,47.80
2017-07-21T11:29:48.705Z,46.70
2017-07-21T11:32:14.745Z,41.40
2017-07-21T11:34:40.772Z,37.90
2017-07-21T11:37:06.818Z,41.00
2017-07-21T11:39:32.841Z,37.90
2017-07-21T11:41:58.897Z,36.70
2017-07-21T11:44:25.666Z,32.00
2017-07-21T11:46:51.706Z,32.00
2017-07-21T11:49:17.742Z,31.70
2017-07-21T11:51:43.794Z,35.70
2017-07-21T11:54:09.826Z,36.10
2017-07-21T11:56:35.865Z,36.90
2017-07-21T11:59:01.914Z,32.10
2017-07-21T12:01:27.950Z,34.30
2017-07-21T12:03:54.017Z,29.50
2017-07-21T12:06:20.058Z,28.10
2017-07-21T12:08:46.114Z,32.30
2017-07-21T12:11:12.171Z,34.30
2017-07-21T12:13:38.221Z,32.50
2017-07-21T12:16:04.991Z,26.00
2017-07-21T12:18:31.021Z,26.00
2017-07-21T12:20:57.073Z,26.70
2017-07-21T12:23:23.118Z,27.60
2017-07-21T12:25:49.157Z,31.00
2017-07-21T12:28:15.178Z,30.00
2017-07-21T12:30:41.210Z,32.20
2017-07-21T12:33:07.231Z,33.80
2017-07-21T12:35:33.299Z,34.70
2017-07-21T12:37:59.338Z,34.70
2017-07-21T12:40:25.400Z,30.00
2017-07-21T12:42:51.476Z,31.30
2017-07-21T12:45:17.498Z,33.80
2017-07-21T12:50:11.301Z,31.90
2017-07-21T12:52:38.078Z,32.70
2017-07-21T12:55:04.113Z,32.20
2017-07-21T12:57:30.178Z,31.80
2017-07-21T12:59:56.234Z,33.50
2017-07-21T13:02:22.301Z,35.30
2017-07-21T13:04:48.325Z,36.80
2017-07-21T13:07:14.350Z,39.90
2017-07-21T13:09:40.414Z,38.20
2017-07-21T13:12:06.462Z,35.30
2017-07-21T13:14:32.485Z,38.30
2017-07-21T13:16:58.510Z,39.20
2017-07-21T13:19:24.541Z,40.10
2017-07-21T13:21:50.586Z,38.90
2017-07-21T13:24:16.642Z,38.40
2017-07-21T13:26:43.430Z,36.20
2017-07-21T13:29:09.465Z,35.90
2017-07-21T13:31:35.482Z,32.80
2017-07-21T13:34:01.513Z,33.30
2017-07-21T13:36:27.546Z,33.30
2017-07-21T13:38:53.592Z,31.30
2017-07-21T13:41:19.641Z,29.90
2017-07-21T13:43:45.679Z,31.20
2017-07-21T13:46:11.714Z,27.90
2017-07-21T13:48:37.762Z,27.80
2017-07-21T13:51:03.798Z,27.30
2017-07-21T13:53:29.830Z,26.50
2017-07-21T13:55:55.866Z,28.30
2017-07-21T13:58:21.894Z,30.80
2017-07-21T14:00:47.961Z,27.70
2017-07-21T14:03:14.021Z,29.60
2017-07-21T14:05:40.062Z,33.30
2017-07-21T14:08:06.121Z,29.40
2017-07-21T14:10:32.959Z,30.40
2017-07-21T14:12:58.993Z,30.40
2017-07-21T14:15:25.053Z,29.00
2017-07-21T14:17:51.102Z,29.50
2017-07-21T14:20:17.161Z,29.80
2017-07-21T14:22:43.210Z,29.60
2017-07-21T14:25:09.256Z,30.00
2017-07-21T14:27:35.296Z,28.00
2017-07-21T14:30:01.319Z,26.50
2017-07-21T14:32:28.381Z,29.40
2017-07-21T14:34:54.429Z,29.40
2017-07-21T14:37:20.509Z,29.80
2017-07-21T14:39:46.598Z,29.70
2017-07-21T14:42:13.506Z,33.40
2017-07-21T14:44:41.028Z,35.70
2017-07-21T14:47:07.071Z,35.30
2017-07-21T14:49:33.864Z,38.50
2017-07-21T14:51:59.937Z,38.40
2017-07-21T14:54:25.980Z,35.90
2017-07-21T14:56:52.023Z,37.20
2017-07-21T14:59:18.073Z,37.90
2017-07-21T15:01:44.858Z,42.00
2017-07-21T15:04:11.645Z,42.50
2017-07-21T15:06:37.677Z,42.50
2017-07-21T15:09:03.710Z,41.30
2017-07-21T15:11:29.738Z,44.70
2017-07-21T15:13:55.782Z,42.40
2017-07-21T15:16:21.817Z,44.40
2017-07-21T15:18:47.853Z,43.40
2017-07-21T15:21:13.866Z,42.60
2017-07-21T15:23:39.906Z,41.10
2017-07-21T15:26:05.952Z,41.00
2017-07-21T15:28:32.719Z,43.90
2017-07-21T15:30:58.781Z,44.30
2017-07-21T15:33:24.810Z,42.70
2017-07-21T15:35:51.611Z,46.20
2017-07-21T15:38:17.647Z,46.20
2017-07-21T15:40:43.701Z,44.00
2017-07-21T15:43:09.738Z,44.20
2017-07-21T15:45:35.761Z,45.50
2017-07-21T15:48:02.525Z,45.60
2017-07-21T15:50:28.593Z,45.60
2017-07-21T15:52:55.397Z,43.90
2017-07-21T15:55:21.446Z,43.90
2017-07-21T15:57:47.494Z,45.20
2017-07-21T16:00:13.544Z,47.30
2017-07-21T16:02:40.349Z,48.20
2017-07-21T16:05:06.377Z,47.70
2017-07-21T16:07:32.425Z,47.80
2017-07-21T16:09:58.478Z,46.80
2017-07-21T16:12:24.510Z,45.00
2017-07-21T16:14:51.277Z,47.70
2017-07-21T16:17:17.341Z,47.60
2017-07-21T16:19:44.125Z,45.90
2017-07-21T16:22:10.190Z,45.80
2017-07-21T16:24:36.209Z,48.40
2017-07-21T16:27:02.233Z,46.50
2017-07-21T16:29:28.266Z,47.30
2017-07-21T16:31:54.282Z,48.10
2017-07-21T16:34:20.345Z,45.10
2017-07-21T16:36:46.380Z,42.30
2017-07-21T16:39:12.413Z,43.00
2017-07-21T16:41:38.459Z,44.40
2017-07-21T16:44:05.249Z,43.10
2017-07-21T16:46:31.272Z,43.10
2017-07-21T16:48:57.302Z,43.00
2017-07-21T16:51:23.334Z,43.40
2017-07-21T16:53:49.362Z,41.00
2017-07-21T16:56:15.409Z,41.70
2017-07-21T16:58:41.434Z,42.90
2017-07-21T17:01:08.222Z,42.10
2017-07-21T17:03:34.254Z,42.00
2017-07-21T17:06:01.030Z,44.80
2017-07-21T17:08:27.069Z,45.00
2017-07-21T17:10:53.101Z,46.00
2017-07-21T17:13:19.901Z,46.10
2017-07-21T17:15:45.927Z,45.20
2017-07-21T17:18:11.959Z,44.70
2017-07-21T17:20:38.733Z,47.30
2017-07-21T17:23:05.514Z,47.20
2017-07-21T17:25:32.284Z,46.70
2017-07-21T17:27:58.329Z,46.70
2017-07-21T17:30:24.355Z,46.80
2017-07-21T17:32:50.405Z,45.10
2017-07-21T17:35:16.521Z,46.00
2017-07-21T17:37:42.545Z,46.00
2017-07-21T17:40:08.574Z,47.10
2017-07-21T17:42:34.595Z,48.10
2017-07-21T17:45:00.630Z,48.10
2017-07-21T17:47:26.738Z,45.70
2017-07-21T17:49:52.781Z,46.50
2017-07-21T17:52:18.830Z,45.80
2017-07-21T17:54:45.621Z,47.90
2017-07-21T17:57:11.658Z,47.90
2017-07-21T17:59:38.437Z,47.10
2017-07-21T18:02:04.459Z,47.00
2017-07-21T18:04:30.482Z,49.70
2017-07-21T18:06:56.549Z,50.70
2017-07-21T18:09:22.585Z,48.60
2017-07-21T18:11:49.360Z,49.40
2017-07-21T18:14:15.377Z,49.40
2017-07-21T18:16:41.433Z,50.10
2017-07-21T18:19:07.466Z,47.70
2017-07-21T18:21:33.499Z,49.70
2017-07-21T18:23:59.639Z,51.00
2017-07-21T18:26:25.657Z,49.50
2017-07-21T18:28:51.687Z,48.90
2017-07-21T18:31:17.730Z,50.00
2017-07-21T18:33:44.500Z,49.90
2017-07-21T18:36:10.574Z,49.90
2017-07-21T18:38:36.625Z,50.10
2017-07-21T18:41:02.651Z,53.00
2017-07-21T18:43:43.665Z,49.80
2017-07-21T18:46:09.723Z,51.50
2017-07-21T18:48:36.525Z,50.90
2017-07-21T18:51:02.606Z,50.80
2017-07-21T18:53:28.766Z,51.50
2017-07-21T18:55:54.787Z,52.50
2017-07-21T18:58:21.578Z,53.60
2017-07-21T19:00:47.628Z,53.60
2017-07-21T19:03:14.514Z,53.50
2017-07-21T19:05:40.724Z,53.50
2017-07-21T19:08:06.807Z,53.60
2017-07-21T19:10:33.093Z,52.50
2017-07-21T19:12:59.884Z,52.40
2017-07-21T19:15:25.953Z,52.40
2017-07-21T19:17:52.065Z,54.50
2017-07-21T19:20:18.130Z,53.20
2017-07-21T19:22:44.202Z,51.80
2017-07-21T19:25:10.250Z,53.10
2017-07-21T19:27:36.274Z,52.90
2017-07-21T19:30:02.306Z,53.80
2017-07-21T19:32:28.377Z,52.60
2017-07-21T19:34:55.270Z,52.40
2017-07-21T19:37:21.381Z,52.90
2017-07-21T19:39:47.570Z,53.20
2017-07-21T19:42:13.606Z,52.10
2017-07-21T19:44:39.662Z,53.00
2017-07-21T19:47:06.513Z,53.20
2017-07-21T19:49:32.569Z,53.20
2017-07-21T19:51:58.679Z,53.10
2017-07-21T19:54:24.822Z,54.30
2017-07-21T19:56:51.619Z,54.80
2017-07-21T19:59:17.648Z,54.80
2017-07-21T20:01:44.433Z,55.10
2017-07-21T20:04:10.661Z,55.10
2017-07-21T20:06:36.757Z,55.80
2017-07-21T20:09:02.794Z,54.30
2017-07-21T20:11:35.905Z,56.40
2017-07-21T20:14:02.674Z,55.60
2017-07-21T20:16:28.862Z,55.50
2017-07-21T20:18:55.009Z,54.80
2017-07-21T20:21:21.079Z,55.80
2017-07-21T20:23:47.225Z,56.80
2017-07-21T20:26:13.270Z,56.80
2017-07-21T20:28:39.422Z,55.70
2017-07-21T20:31:05.462Z,56.30
2017-07-21T20:33:31.720Z,57.20
2017-07-21T20:35:57.857Z,58.10
2017-07-21T20:38:24.142Z,58.10
2017-07-21T20:40:50.176Z,57.30
2017-07-21T20:43:16.214Z,57.30
2017-07-21T20:45:42.290Z,58.20
2017-07-21T20:48:08.338Z,59.60
2017-07-21T20:50:34.393Z,59.50
2017-07-21T20:53:00.427Z,60.50
2017-07-21T20:55:26.577Z,60.40
2017-07-21T20:57:52.611Z,60.30
2017-07-21T21:00:19.689Z,62.50
2017-07-21T21:02:45.750Z,62.40
2017-07-21T21:05:12.550Z,62.30
2017-07-21T21:07:38.669Z,62.40
2017-07-21T21:10:05.762Z,65.00
2017-07-21T21:12:31.942Z,65.00
2017-07-21T21:14:58.163Z,63.80
2017-07-21T21:17:24.308Z,64.20
2017-07-21T21:19:50.360Z,65.80
2017-07-21T21:22:17.138Z,65.50
2017-07-21T21:24:43.238Z,65.40
2017-07-21T21:27:09.254Z,65.60
2017-07-21T21:29:35.277Z,66.10
2017-07-21T21:32:01.321Z,65.80
2017-07-21T21:34:28.113Z,66.60
2017-07-21T21:36:54.174Z,66.60
2017-07-21T21:39:20.199Z,67.40
2017-07-21T21:41:46.253Z,67.40
2017-07-21T21:44:12.273Z,68.40
2017-07-21T21:46:38.310Z,67.30
2017-07-21T21:49:04.353Z,67.60
2017-07-21T21:51:30.428Z,67.10
2017-07-21T21:53:56.518Z,66.40
2017-07-21T21:56:23.293Z,67.50
2017-07-21T21:58:49.333Z,67.40
2017-07-21T22:01:15.371Z,66.80
2017-07-21T22:03:42.153Z,66.90
2017-07-21T22:06:08.197Z,66.80
2017-07-21T22:08:35.000Z,66.70
2017-07-21T22:11:01.033Z,66.70
2017-07-21T22:13:27.818Z,66.50
2017-07-21T22:15:53.846Z,66.40
2017-07-21T22:18:19.894Z,67.00
2017-07-21T22:20:45.941Z,66.90
2017-07-21T22:23:11.986Z,67.20
2017-07-21T22:25:38.021Z,66.40
2017-07-21T22:28:04.051Z,67.30
2017-07-21T22:30:30.085Z,67.20
2017-07-21T22:32:56.114Z,67.30
2017-07-21T22:35:22.915Z,68.00
2017-07-21T22:37:48.981Z,68.00
2017-07-21T22:40:15.019Z,68.70
2017-07-21T22:42:41.045Z,68.70
2017-07-21T22:45:07.078Z,68.40
2017-07-21T22:47:33.858Z,69.80
2017-07-21T22:49:59.902Z,69.30
2017-07-21T22:52:25.934Z,69.30
2017-07-21T22:54:52.791Z,69.90
2017-07-21T22:57:18.846Z,69.80
2017-07-21T22:59:44.885Z,69.40
2017-07-21T23:02:11.666Z,69.10
2017-07-21T23:04:37.758Z,69.10
2017-07-21T23:07:03.810Z,69.50
2017-07-21T23:09:29.864Z,69.60
2017-07-21T23:11:55.906Z,69.10
2017-07-21T23:14:21.967Z,69.60
2017-07-21T23:16:48.058Z,69.60
2017-07-21T23:19:14.834Z,69.60
2017-07-21T23:21:40.889Z,69.60
2017-07-21T23:24:06.930Z,69.70
2017-07-21T23:26:32.959Z,69.80
2017-07-21T23:28:58.990Z,69.30
2017-07-21T23:31:25.034Z,69.50
2017-07-21T23:33:51.810Z,69.40
2017-07-21T23:36:17.862Z,69.40
2017-07-21T23:38:44.665Z,69.90
2017-07-21T23:41:10.719Z,69.80
2017-07-21T23:43:36.766Z,69.30
2017-07-21T23:46:02.842Z,69.60
2017-07-21T23:48:28.898Z,69.50
2017-07-21T23:50:54.925Z,69.80
2017-07-21T23:53:21.721Z,69.90
2017-07-21T23:55:47.753Z,69.80
2017-07-21T23:58:13.775Z,70.10
